ADDS METAR Data INFO
IDs: Format: Raw Decoded Include TAF

Data at: 2210 UTC 24 Jun 2018

KSZT 242155Z AUTO 11007KT 10SM CLR 26/12 A3000 RMK AO2
KSZT 242135Z AUTO 10004KT 10SM CLR 26/12 A3001 RMK AO2
KSZT 242115Z AUTO 13007KT 10SM CLR 25/12 A3002 RMK AO2
KSZT 242055Z AUTO 10006KT 10SM CLR 25/12 A3002 RMK AO2
KSZT 242035Z AUTO 13004KT 10SM CLR 25/12 A3003 RMK AO2
KSZT 242015Z AUTO 13006KT 10SM CLR 25/12 A3004 RMK AO2
KSZT 241955Z AUTO 13005KT 10SM CLR 24/12 A3004 RMK AO2
KSZT 241935Z AUTO 12005KT 10SM CLR 23/12 A3005 RMK AO2
KSZT 241915Z AUTO 13004KT 10SM CLR 23/12 A3006 RMK AO2
KSZT 241855Z AUTO 10005KT 10SM CLR 22/12 A3006 RMK AO2
KSZT 241835Z AUTO 12004KT 10SM CLR 22/12 A3007 RMK AO2
KSZT 241815Z AUTO 13005KT 10SM CLR 21/12 A3007 RMK AO2
KSZT 241755Z AUTO 12004KT 10SM CLR 21/12 A3008 RMK AO2
KSZT 241735Z AUTO 12004KT 10SM CLR 20/12 A3008 RMK AO2
KSZT 241715Z AUTO 11004KT 10SM CLR 20/12 A3008 RMK AO2
KSZT 241655Z AUTO 10003KT 10SM CLR 19/12 A3009 RMK AO2
KSZT 241635Z AUTO 00000KT 10SM CLR 19/12 A3009 RMK AO2
KSZT 241615Z AUTO 10003KT 10SM CLR 18/12 A3010 RMK AO2
KSZT 241555Z AUTO 00000KT 10SM CLR 18/12 A3010 RMK AO2
KSZT 241535Z AUTO 09003KT 10SM CLR 17/12 A3011 RMK AO2
KSZT 241515Z AUTO 00000KT 10SM CLR 17/12 A3011 RMK AO2
KSZT 241455Z AUTO 00000KT 10SM CLR 16/12 A3011 RMK AO2
KSZT 241435Z AUTO 00000KT 10SM CLR 15/12 A3011 RMK AO2
KSZT 241415Z AUTO 00000KT 10SM CLR 14/11 A3011 RMK AO2
KSZT 241355Z AUTO 00000KT 10SM CLR 13/12 A3011 RMK AO2
KSZT 241335Z AUTO 00000KT 10SM CLR 12/12 A3011 RMK AO2
KSZT 241315Z AUTO 00000KT 10SM CLR 11/11 A3011 RMK AO2
KSZT 241255Z AUTO 00000KT 10SM SCT002 10/10 A3010 RMK AO2
KSZT 241235Z AUTO 00000KT 1SM BR OVC002 09/09 A3010 RMK AO2 VIS 1/2V5
KSZT 241215Z AUTO 00000KT 5SM BR SCT002 09/09 A3010 RMK AO2
KSZT 241155Z AUTO 00000KT 1 1/2SM BR SCT002 09/09 A3009 RMK AO2 VIS 3/4V4
KSZT 241135Z AUTO 00000KT 1 3/4SM BR SCT002 10/10 A3009 RMK AO2 VIS 3/4V5
KSZT 241115Z AUTO 00000KT 10SM CLR 09/09 A3009 RMK AO2
KSZT 241055Z AUTO 00000KT 10SM CLR 10/09 A3009 RMK AO2
KSZT 241035Z AUTO 00000KT 10SM CLR 10/10 A3008 RMK AO2
KSZT 241015Z AUTO 00000KT 10SM CLR 10/10 A3008 RMK AO2
KSZT 240955Z AUTO 00000KT 10SM CLR 10/10 A3008 RMK AO2
KSZT 240935Z AUTO 00000KT 10SM CLR 10/10 A3008 RMK AO2
KSZT 240915Z AUTO 00000KT 10SM CLR 11/10 A3007 RMK AO2
KSZT 240855Z AUTO 00000KT 10SM CLR 11/11 A3007 RMK AO2
KSZT 240835Z AUTO 00000KT 10SM CLR 11/11 A3007 RMK AO2
KSZT 240815Z AUTO 00000KT 10SM CLR 11/11 A3007 RMK AO2
KSZT 240755Z AUTO 00000KT 10SM CLR 11/11 A3006 RMK AO2
KSZT 240735Z AUTO 00000KT 10SM CLR 12/11 A3006 RMK AO2
KSZT 240715Z AUTO 00000KT 10SM CLR 12/11 A3006 RMK AO2
KSZT 240655Z AUTO 36003KT 10SM SCT110 13/12 A3006 RMK AO2
KSZT 240635Z AUTO 00000KT 10SM BKN110 13/12 A3006 RMK AO2
KSZT 240615Z AUTO 03005KT 10SM SCT110 16/11 A3005 RMK AO2
KSZT 240555Z AUTO 01005KT 10SM SCT110 16/11 A3005 RMK AO2
KSZT 240535Z AUTO 36005KT 10SM BKN110 16/12 A3005 RMK AO2
KSZT 240515Z AUTO 01005KT 10SM OVC110 16/12 A3005 RMK AO2
KSZT 240455Z AUTO 01004KT 10SM BKN110 16/12 A3005 RMK AO2
KSZT 240435Z AUTO 01006KT 10SM BKN110 16/12 A3005 RMK AO2
KSZT 240415Z AUTO 01004KT 10SM OVC110 17/12 A3004 RMK AO2
KSZT 240355Z AUTO 01005KT 10SM OVC110 17/12 A3004 RMK AO2
KSZT 240335Z AUTO 36003KT 10SM OVC110 17/12 A3004 RMK AO2
KSZT 240315Z AUTO 00000KT 10SM OVC110 17/12 A3003 RMK AO2
KSZT 240255Z AUTO 00000KT 10SM OVC110 18/12 A3003 RMK AO2
KSZT 240235Z AUTO 01004KT 10SM OVC110 18/12 A3003 RMK AO2
KSZT 240215Z AUTO 01003KT 10SM OVC110 18/12 A3003 RMK AO2
KSZT 240155Z AUTO 36004KT 10SM OVC110 18/12 A3003 RMK AO2
KSZT 240135Z AUTO 04003KT 10SM OVC110 18/12 A3003 RMK AO2
KSZT 240115Z AUTO 10004KT 10SM OVC110 19/12 A3002 RMK AO2
KSZT 240055Z AUTO 00000KT 10SM OVC110 20/12 A3002 RMK AO2
KSZT 240035Z AUTO 19004KT 10SM SCT047 OVC110 20/12 A3002 RMK AO2
KSZT 240015Z AUTO 22004KT 10SM SCT047 BKN100 20/12 A3002 RMK AO2
KSZT 232355Z AUTO 19004KT 10SM SCT037 SCT046 OVC100 20/12 A3002 RMK AO2
KSZT 232335Z AUTO 20006KT 10SM BKN035 BKN045 OVC095 20/11 A3003 RMK AO2
KSZT 232315Z AUTO 18004KT 10SM SCT033 SCT042 BKN095 20/12 A3002 RMK AO2
KSZT 232255Z AUTO 18005KT 10SM SCT032 BKN065 BKN080 19/12 A3003 RMK AO2
KSZT 232235Z AUTO 14003KT 10SM SCT035 BKN044 OVC065 18/12 A3003 RMK AO2
KSZT 232215Z AUTO 00000KT 10SM BKN044 BKN055 OVC075 18/12 A3003 RMK AO2
KSZT 232155Z AUTO 00000KT 7SM -DZ BKN046 OVC050 17/12 A3003 RMK AO2
KSZT 232135Z AUTO 00000KT 10SM OVC048 17/12 A3003 RMK AO2
KSZT 232115Z AUTO 17003KT 10SM OVC050 17/12 A3003 RMK AO2
KSZT 232055Z AUTO 00000KT 10SM SCT043 OVC050 17/12 A3002 RMK AO2
KSZT 232035Z AUTO 21003KT 10SM OVC044 17/12 A3002 RMK AO2
KSZT 232015Z AUTO 24003KT 10SM OVC044 17/11 A3002 RMK AO2
KSZT 231955Z AUTO 25004KT 10SM SCT025 SCT032 OVC042 17/11 A3002 RMK AO2
KSZT 231935Z AUTO 26005KT 10SM SCT025 SCT032 OVC044 17/11 A3001 RMK AO2
KSZT 231915Z AUTO 25005KT 10SM SCT032 OVC044 17/12 A3000 RMK AO2
KSZT 231855Z AUTO 24003KT 10SM OVC046 16/12 A3000 RMK AO2
KSZT 231835Z AUTO 25004KT 10SM SCT025 OVC046 16/11 A3000 RMK AO2
KSZT 231815Z AUTO 22005KT 10SM OVC023 15/11 A3000 RMK AO2
KSZT 231755Z AUTO 22006KT 10SM OVC023 15/11 A3000 RMK AO2
KSZT 231735Z AUTO 23006KT 10SM OVC023 15/11 A3000 RMK AO2
KSZT 231715Z AUTO 21007KT 10SM OVC023 15/11 A2999 RMK AO2
KSZT 231655Z AUTO 21006KT 10SM OVC021 15/11 A2999 RMK AO2
KSZT 231635Z AUTO 21008KT 10SM BKN018 OVC024 15/11 A2999 RMK AO2
KSZT 231615Z AUTO 20006KT 10SM SCT016 OVC024 15/11 A2998 RMK AO2
KSZT 231555Z AUTO 20007KT 10SM BKN016 OVC021 13/11 A2998 RMK AO2
KSZT 231535Z AUTO 20005KT 10SM BKN013 OVC021 13/11 A2998 RMK AO2
KSZT 231515Z AUTO 20006KT 10SM BKN013 OVC021 13/11 A2998 RMK AO2
KSZT 231455Z AUTO 19009KT 10SM BKN021 OVC090 13/12 A2997 RMK AO2
KSZT 231435Z AUTO 20009KT 10SM SCT021 BKN090 13/12 A2996 RMK AO2
KSZT 231415Z AUTO 21006KT 10SM CLR 13/12 A2996 RMK AO2
KSZT 231355Z AUTO 20006KT 10SM SCT006 SCT120 13/12 A2995 RMK AO2
KSZT 231335Z AUTO 19004KT 10SM BKN008 OVC120 13/12 A2995 RMK AO2
KSZT 231315Z AUTO 22003KT 10SM OVC008 12/12 A2995 RMK AO2
KSZT 231255Z AUTO 24003KT 10SM OVC008 12/12 A2994 RMK AO2
KSZT 231235Z AUTO 23003KT 10SM OVC010 12/12 A2994 RMK AO2
KSZT 231215Z AUTO 24003KT 10SM BKN010 BKN015 OVC090 12/12 A2993 RMK AO2
KSZT 231155Z AUTO 00000KT 10SM SCT010 SCT015 OVC090 12/12 A2992 RMK AO2
KSZT 231135Z AUTO 00000KT 10SM SCT010 BKN090 OVC120 12/11 A2992 RMK AO2
KSZT 231115Z AUTO 23003KT 10SM BKN100 OVC120 12/11 A2991 RMK AO2
KSZT 231055Z AUTO 00000KT 10SM SCT100 OVC120 12/11 A2991 RMK AO2
KSZT 231035Z AUTO 00000KT 10SM BKN100 OVC120 12/12 A2992 RMK AO2
KSZT 231015Z AUTO 00000KT 10SM BKN100 OVC120 12/12 A2992 RMK AO2